createdAt,value
2023-03-06T00:00:40.328Z,95532.52
2023-03-06T00:03:18.513Z,95528.19
2023-03-06T00:05:47.697Z,95531.55
2023-03-06T00:08:16.294Z,95535.16
2023-03-06T00:10:44.770Z,95532.31
2023-03-06T00:13:15.346Z,95537.41
2023-03-06T00:15:43.719Z,95533.37
2023-03-06T00:18:12.131Z,95535.27
2023-03-06T00:20:42.554Z,95536.46
2023-03-06T00:23:12.356Z,95533.38
2023-03-06T00:25:46.888Z,95529.08
2023-03-06T00:28:16.093Z,95526.24
2023-03-06T00:30:46.280Z,95524.41
2023-03-06T00:33:14.746Z,95525.11
2023-03-06T00:35:43.122Z,95524.86
2023-03-06T00:38:13.032Z,95526.88
2023-03-06T00:40:41.524Z,95529.34
2023-03-06T00:43:10.173Z,95528.46
2023-03-06T00:45:39.378Z,95525.77
2023-03-06T00:48:11.163Z,95526.69
2023-03-06T00:50:39.659Z,95526.88
2023-03-06T00:53:08.119Z,95529.06
2023-03-06T00:55:36.679Z,95530.17
2023-03-06T00:58:05.092Z,95530.23
2023-03-06T01:00:33.726Z,95530.84
2023-03-06T01:03:02.220Z,95531.21
2023-03-06T01:05:33.407Z,95531.15
2023-03-06T01:08:02.030Z,95529.61
2023-03-06T01:10:31.439Z,95526.66
2023-03-06T01:12:59.806Z,95533.05
2023-03-06T01:15:28.065Z,95536.80
2023-03-06T01:17:56.431Z,95534.02
2023-03-06T01:20:25.209Z,95535.92
2023-03-06T01:22:55.702Z,95538.30
2023-03-06T01:25:25.553Z,95538.05
2023-03-06T01:27:53.985Z,95540.19
2023-03-06T01:30:22.397Z,95541.09
2023-03-06T01:32:50.828Z,95540.27
2023-03-06T01:35:19.554Z,95540.46
2023-03-06T01:37:47.992Z,95536.29
2023-03-06T01:40:16.383Z,95538.59
2023-03-06T01:42:49.133Z,95532.96
2023-03-06T01:45:17.455Z,95533.48
2023-03-06T01:47:45.816Z,95532.88
2023-03-06T01:50:14.438Z,95528.87
2023-03-06T01:52:48.634Z,95529.67
2023-03-06T01:55:26.488Z,95528.75
2023-03-06T01:58:01.605Z,95527.20
2023-03-06T02:00:31.182Z,95531.95
2023-03-06T02:03:14.440Z,95531.83
2023-03-06T02:05:44.385Z,95534.45
2023-03-06T02:08:15.600Z,95538.04
2023-03-06T02:10:57.516Z,95539.35
2023-03-06T02:13:25.947Z,95539.49
2023-03-06T02:15:54.910Z,95540.66
2023-03-06T02:18:23.560Z,95539.94
2023-03-06T02:20:59.132Z,95540.13
2023-03-06T02:23:56.726Z,95540.02
2023-03-06T02:26:27.983Z,95541.27
2023-03-06T02:28:58.687Z,95540.52
2023-03-06T02:31:30.236Z,95540.38
2023-03-06T02:34:15.668Z,95539.27
2023-03-06T02:36:52.052Z,95541.23
2023-03-06T02:39:24.216Z,95543.27
2023-03-06T02:41:53.281Z,95547.82
2023-03-06T02:44:22.886Z,95543.16
2023-03-06T02:46:51.234Z,95541.05
2023-03-06T02:49:19.627Z,95543.33
2023-03-06T02:51:48.061Z,95541.07
2023-03-06T02:54:18.541Z,95535.55
2023-03-06T02:56:47.235Z,95538.05
2023-03-06T02:59:15.699Z,95536.13
2023-03-06T03:01:44.521Z,95535.08
2023-03-06T03:04:12.986Z,95535.92
2023-03-06T03:06:41.405Z,95542.06
2023-03-06T03:09:10.110Z,95545.37
2023-03-06T03:11:38.499Z,95541.55
2023-03-06T03:14:06.892Z,95540.36
2023-03-06T03:16:36.645Z,95543.64
2023-03-06T03:19:05.940Z,95539.83
2023-03-06T03:21:34.498Z,95537.37
2023-03-06T03:24:02.780Z,95539.89
2023-03-06T03:26:31.359Z,95536.49
2023-03-06T03:29:05.280Z,95543.48
2023-03-06T03:31:33.890Z,95537.52
2023-03-06T03:34:02.950Z,95536.50
2023-03-06T03:36:33.495Z,95537.54
2023-03-06T03:39:02.579Z,95539.22
2023-03-06T03:41:31.233Z,95539.84
2023-03-06T03:44:00.682Z,95542.14
2023-03-06T03:46:29.878Z,95542.89
2023-03-06T03:48:58.768Z,95538.80
2023-03-06T03:51:28.023Z,95537.73
2023-03-06T03:53:58.292Z,95534.42
2023-03-06T03:56:28.621Z,95541.02
2023-03-06T03:59:01.992Z,95541.77
2023-03-06T04:01:33.829Z,95543.23
2023-03-06T04:04:02.790Z,95545.59
2023-03-06T04:06:31.224Z,95546.68
2023-03-06T04:08:59.803Z,95547.27
2023-03-06T04:11:28.438Z,95549.15
2023-03-06T04:13:56.943Z,95556.00
2023-03-06T04:16:25.691Z,95559.04
2023-03-06T04:18:54.201Z,95554.77
2023-03-06T04:21:22.879Z,95557.52
2023-03-06T04:23:51.221Z,95558.52
2023-03-06T04:26:19.630Z,95561.66
2023-03-06T04:28:48.032Z,95563.11
2023-03-06T04:31:17.013Z,95558.86
2023-03-06T04:33:45.358Z,95558.73
2023-03-06T04:36:32.268Z,95554.06
2023-03-06T04:39:05.165Z,95558.02
2023-03-06T04:41:34.108Z,95560.38
2023-03-06T04:44:02.598Z,95559.46
2023-03-06T04:46:30.951Z,95556.54
2023-03-06T04:48:59.286Z,95554.02
2023-03-06T04:51:27.863Z,95556.19
2023-03-06T04:53:56.261Z,95556.94
2023-03-06T04:56:24.579Z,95556.70
2023-03-06T04:58:52.912Z,95557.66
2023-03-06T05:01:21.355Z,95557.21
2023-03-06T05:03:52.534Z,95559.60
2023-03-06T05:06:20.984Z,95561.30
2023-03-06T05:08:49.389Z,95565.90
2023-03-06T05:11:17.886Z,95567.31
2023-03-06T05:13:46.208Z,95565.00
2023-03-06T05:16:14.614Z,95572.03
2023-03-06T05:18:43.015Z,95571.11
2023-03-06T05:21:11.390Z,95569.34
2023-03-06T05:23:40.064Z,95575.70
2023-03-06T05:26:11.187Z,95578.55
2023-03-06T05:28:39.710Z,95581.33
2023-03-06T05:31:08.166Z,95584.96
2023-03-06T05:33:37.043Z,95585.13
2023-03-06T05:36:07.519Z,95588.98
2023-03-06T05:38:35.906Z,95588.65
2023-03-06T05:41:04.515Z,95587.80
2023-03-06T05:43:32.809Z,95589.66
2023-03-06T05:46:05.890Z,95591.54
2023-03-06T05:48:35.694Z,95588.74
2023-03-06T05:51:05.393Z,95589.58
2023-03-06T05:53:33.762Z,95594.02
2023-03-06T05:56:05.369Z,95596.11
2023-03-06T05:58:34.717Z,95598.29
2023-03-06T06:01:15.054Z,95601.02
2023-03-06T06:03:44.871Z,95601.21
2023-03-06T06:06:15.188Z,95603.34
2023-03-06T06:08:43.743Z,95604.72
2023-03-06T06:11:13.911Z,95604.58
2023-03-06T06:13:42.347Z,95599.55
2023-03-06T06:16:15.754Z,95601.84
2023-03-06T06:18:44.214Z,95603.69
2023-03-06T06:21:17.340Z,95603.60
2023-03-06T06:23:46.377Z,95604.81
2023-03-06T06:26:14.718Z,95599.85
2023-03-06T06:28:43.053Z,95603.55
2023-03-06T06:31:20.269Z,95602.46
2023-03-06T06:33:48.652Z,95605.24
2023-03-06T06:36:21.881Z,95603.59
2023-03-06T06:38:50.395Z,95607.63
2023-03-06T06:41:42.247Z,95609.00
2023-03-06T06:44:10.684Z,95609.23
2023-03-06T06:47:20.879Z,95605.87
2023-03-06T06:49:27.420Z,95606.06
2023-03-06T06:51:55.786Z,95605.77
2023-03-06T06:54:24.983Z,95604.44
2023-03-06T06:56:53.679Z,95608.67
2023-03-06T06:59:24.002Z,95610.73
2023-03-06T07:01:53.265Z,95610.69
2023-03-06T07:04:24.892Z,95612.27
2023-03-06T07:06:56.489Z,95607.92
2023-03-06T07:09:25.137Z,95609.56
2023-03-06T07:11:53.657Z,95609.42
2023-03-06T07:14:22.201Z,95610.69
2023-03-06T07:16:50.633Z,95608.91
2023-03-06T07:19:21.505Z,95616.23
2023-03-06T07:21:50.124Z,95616.16
2023-03-06T07:24:20.893Z,95612.86
2023-03-06T07:26:52.639Z,95616.98
2023-03-06T07:29:21.174Z,95618.06
2023-03-06T07:31:49.607Z,95624.07
2023-03-06T07:34:18.014Z,95624.27
2023-03-06T07:36:46.410Z,95618.64
2023-03-06T07:39:14.886Z,95624.83
2023-03-06T07:41:43.279Z,95628.86
2023-03-06T07:44:11.646Z,95626.90
2023-03-06T07:46:40.089Z,95624.04
2023-03-06T07:49:08.500Z,95621.30
2023-03-06T07:51:36.910Z,95628.12
2023-03-06T07:54:05.370Z,95626.86
2023-03-06T07:56:35.232Z,95626.81
2023-03-06T07:59:03.837Z,95624.42
2023-03-06T08:01:32.302Z,95627.85
2023-03-06T08:04:02.259Z,95633.97
2023-03-06T08:06:30.832Z,95635.77
2023-03-06T08:08:59.185Z,95634.74
2023-03-06T08:11:30.348Z,95637.45
2023-03-06T08:13:59.421Z,95638.77
2023-03-06T08:16:30.272Z,95639.98
2023-03-06T08:18:58.829Z,95634.45
2023-03-06T08:21:28.689Z,95641.08
2023-03-06T08:23:57.349Z,95643.74
2023-03-06T08:26:28.520Z,95636.14
2023-03-06T08:28:58.909Z,95638.24
2023-03-06T08:31:35.508Z,95635.00
2023-03-06T08:34:06.889Z,95641.04
2023-03-06T08:36:35.220Z,95639.30
2023-03-06T08:39:04.880Z,95638.45
2023-03-06T08:41:34.481Z,95640.40
2023-03-06T08:44:03.882Z,95642.28
2023-03-06T08:46:33.566Z,95642.44
2023-03-06T08:49:02.583Z,95644.94
2023-03-06T08:51:31.190Z,95644.77
2023-03-06T08:54:00.400Z,95647.27
2023-03-06T08:56:32.232Z,95648.63
2023-03-06T08:59:04.048Z,95643.79
2023-03-06T09:01:35.313Z,95641.89
2023-03-06T09:04:10.034Z,95641.10
2023-03-06T09:06:41.536Z,95637.69
2023-03-06T09:09:10.357Z,95637.48
2023-03-06T09:11:39.181Z,95639.27
2023-03-06T09:14:07.734Z,95642.18
2023-03-06T09:16:36.152Z,95645.29
2023-03-06T09:19:04.799Z,95646.64
2023-03-06T09:21:33.357Z,95644.22
2023-03-06T09:24:01.782Z,95645.31
2023-03-06T09:26:43.206Z,95649.73
2023-03-06T09:29:16.423Z,95650.70
2023-03-06T09:31:45.757Z,95650.24
2023-03-06T09:34:14.366Z,95647.96
2023-03-06T09:36:56.559Z,95646.91
2023-03-06T09:39:26.405Z,95648.20
2023-03-06T09:41:59.573Z,95647.51
2023-03-06T09:44:34.030Z,95649.73
2023-03-06T09:47:43.667Z,95646.03
2023-03-06T09:50:36.624Z,95644.72
2023-03-06T09:53:44.725Z,95646.60
2023-03-06T09:56:24.788Z,95650.34
2023-03-06T09:59:02.163Z,95651.79
2023-03-06T10:01:35.186Z,95649.88
2023-03-06T10:04:32.416Z,95650.20
2023-03-06T10:07:10.540Z,95651.83
2023-03-06T10:09:45.937Z,95647.59
2023-03-06T10:12:29.363Z,95648.67
2023-03-06T10:15:23.735Z,95650.00
2023-03-06T10:17:52.084Z,95642.73
2023-03-06T10:20:24.804Z,95638.74
2023-03-06T10:23:05.096Z,95641.59
2023-03-06T10:25:56.446Z,95641.30
2023-03-06T10:28:44.845Z,95640.52
2023-03-06T10:31:22.774Z,95639.66
2023-03-06T10:33:54.126Z,95635.15
2023-03-06T10:36:27.427Z,95633.73
2023-03-06T10:38:58.667Z,95633.98
2023-03-06T10:41:32.009Z,95627.45
2023-03-06T10:44:00.455Z,95619.67
2023-03-06T10:46:31.916Z,95620.16
2023-03-06T10:49:03.351Z,95617.52
2023-03-06T10:51:33.837Z,95611.77
2023-03-06T10:54:23.989Z,95607.94
2023-03-06T10:56:52.312Z,95610.18
2023-03-06T10:59:25.518Z,95605.84
2023-03-06T11:01:54.252Z,95603.38
2023-03-06T11:04:34.887Z,95599.23
2023-03-06T11:07:17.610Z,95596.23
2023-03-06T11:10:02.380Z,95594.35
2023-03-06T11:12:42.356Z,95594.08
2023-03-06T11:15:18.952Z,95591.73
2023-03-06T11:17:56.475Z,95589.55
2023-03-06T11:20:52.597Z,95587.13
2023-03-06T11:23:24.417Z,95585.48
2023-03-06T11:25:57.947Z,95583.84
2023-03-06T11:28:30.028Z,95579.14
2023-03-06T11:31:10.810Z,95575.84
2023-03-06T11:33:46.618Z,95579.42
2023-03-06T11:36:27.132Z,95567.01
2023-03-06T11:38:55.900Z,95561.19
2023-03-06T11:41:40.369Z,95559.20
2023-03-06T11:44:32.458Z,95555.02
2023-03-06T11:47:12.976Z,95552.48
2023-03-06T11:50:04.560Z,95545.92
2023-03-06T11:52:53.591Z,95539.08
2023-03-06T11:55:38.869Z,95538.79
2023-03-06T11:58:28.457Z,95535.35
2023-03-06T12:01:09.249Z,95527.27
2023-03-06T12:03:57.812Z,95522.58
2023-03-06T12:06:46.961Z,95527.02
2023-03-06T12:09:49.578Z,95524.02
2023-03-06T12:12:28.063Z,95517.14
2023-03-06T12:15:20.923Z,95516.67
2023-03-06T12:18:01.463Z,95519.71
2023-03-06T12:20:33.177Z,95517.33
2023-03-06T12:23:30.355Z,95514.75
2023-03-06T12:26:26.660Z,95515.73
2023-03-06T12:29:28.570Z,95509.48
2023-03-06T12:32:11.490Z,95504.88
2023-03-06T12:34:55.208Z,95501.79
2023-03-06T12:37:32.656Z,95499.95
2023-03-06T12:40:06.844Z,95503.63
2023-03-06T12:43:00.533Z,95502.73
2023-03-06T12:45:31.054Z,95502.11
2023-03-06T12:48:00.426Z,95500.86
2023-03-06T12:50:37.142Z,95500.08
2023-03-06T12:53:16.292Z,95496.89
2023-03-06T12:55:47.645Z,95495.45
2023-03-06T12:58:31.505Z,95493.64
2023-03-06T13:01:04.172Z,95493.48
2023-03-06T13:03:57.724Z,95487.86
2023-03-06T13:06:39.268Z,95482.27
2023-03-06T13:09:36.278Z,95476.16
2023-03-06T13:12:16.879Z,95473.30
2023-03-06T13:14:54.156Z,95473.23
2023-03-06T13:17:23.063Z,95466.84
2023-03-06T13:20:13.367Z,95462.66
2023-03-06T13:22:44.571Z,95458.45
2023-03-06T13:25:21.042Z,95459.47
2023-03-06T13:27:52.491Z,95463.59
2023-03-06T13:30:39.113Z,95460.89
2023-03-06T13:33:36.492Z,95458.41
2023-03-06T13:36:16.964Z,95455.19
2023-03-06T13:38:51.805Z,95462.02
2023-03-06T13:41:23.192Z,95462.73
2023-03-06T13:43:56.877Z,95460.89
2023-03-06T13:46:35.255Z,95458.30
2023-03-06T13:49:09.763Z,95459.88
2023-03-06T13:51:47.947Z,95455.38
2023-03-06T13:54:34.988Z,95454.37
2023-03-06T13:57:12.420Z,95452.31
2023-03-06T14:00:09.240Z,95449.35
2023-03-06T14:02:56.840Z,95444.99
2023-03-06T14:05:34.738Z,95441.85
2023-03-06T14:08:33.162Z,95444.99
2023-03-06T14:11:15.435Z,95440.65
2023-03-06T14:13:49.722Z,95443.92
2023-03-06T14:16:27.868Z,95440.25
2023-03-06T14:18:59.067Z,95437.89
2023-03-06T14:21:38.353Z,95430.52
2023-03-06T14:24:06.750Z,95436.56
2023-03-06T14:26:44.117Z,95434.93
2023-03-06T14:29:24.441Z,95433.20
2023-03-06T14:31:58.849Z,95428.33
2023-03-06T14:34:38.676Z,95419.00
2023-03-06T14:37:18.752Z,95422.60
2023-03-06T14:39:47.978Z,95429.23
2023-03-06T14:42:24.274Z,95427.98
2023-03-06T14:45:16.333Z,95424.02
2023-03-06T14:47:51.122Z,95422.29
2023-03-06T14:50:28.671Z,95420.60
2023-03-06T14:52:58.474Z,95418.39
2023-03-06T14:55:29.066Z,95416.31
2023-03-06T14:58:03.412Z,95414.38
2023-03-06T15:00:39.307Z,95415.44
2023-03-06T15:03:16.609Z,95417.71
2023-03-06T15:05:47.301Z,95417.61
2023-03-06T15:08:21.403Z,95411.77
2023-03-06T15:10:59.169Z,95413.70
2023-03-06T15:13:30.074Z,95412.69
2023-03-06T15:16:22.948Z,95411.77
2023-03-06T15:18:58.210Z,95410.36
2023-03-06T15:21:28.706Z,95413.17
2023-03-06T15:23:58.264Z,95412.06
2023-03-06T15:26:33.523Z,95411.22
2023-03-06T15:29:11.098Z,95409.41
2023-03-06T15:31:42.169Z,95409.02
2023-03-06T15:34:10.565Z,95406.19
2023-03-06T15:36:41.582Z,95405.73
2023-03-06T15:39:34.262Z,95404.86
2023-03-06T15:42:26.149Z,95407.24
2023-03-06T15:44:57.263Z,95414.39
2023-03-06T15:47:25.895Z,95416.84
2023-03-06T15:49:54.356Z,95414.68
2023-03-06T15:52:23.728Z,95414.02
2023-03-06T15:54:52.259Z,95416.44
2023-03-06T15:57:29.919Z,95418.65
2023-03-06T16:00:00.057Z,95416.02
2023-03-06T16:02:28.527Z,95418.09
2023-03-06T16:04:57.073Z,95416.05
2023-03-06T16:07:26.823Z,95414.05
2023-03-06T16:10:05.717Z,95412.40
2023-03-06T16:12:34.396Z,95411.20
2023-03-06T16:15:03.084Z,95410.40
2023-03-06T16:17:31.506Z,95412.45
2023-03-06T16:19:59.852Z,95412.58
2023-03-06T16:22:28.199Z,95412.40
2023-03-06T16:24:56.874Z,95411.81
2023-03-06T16:27:25.882Z,95409.73
2023-03-06T16:29:54.345Z,95407.25
2023-03-06T16:32:22.959Z,95406.84
2023-03-06T16:34:51.430Z,95406.98
2023-03-06T16:37:19.976Z,95405.45
2023-03-06T16:39:48.438Z,95406.20
2023-03-06T16:42:17.775Z,95405.63
2023-03-06T16:44:46.287Z,95402.25
2023-03-06T16:47:15.092Z,95402.55
2023-03-06T16:49:43.522Z,95398.73
2023-03-06T16:52:12.036Z,95399.87
2023-03-06T16:54:40.523Z,95402.55
2023-03-06T16:57:13.779Z,95402.29
2023-03-06T16:59:42.210Z,95399.65
2023-03-06T17:02:11.960Z,95401.12
2023-03-06T17:04:40.404Z,95400.41
2023-03-06T17:07:08.742Z,95400.05
2023-03-06T17:09:37.174Z,95398.73
2023-03-06T17:12:05.859Z,95394.42
2023-03-06T17:14:34.385Z,95391.99
2023-03-06T17:17:02.782Z,95391.23
2023-03-06T17:19:31.187Z,95390.70
2023-03-06T17:21:59.683Z,95387.04
2023-03-06T17:24:28.285Z,95388.88
2023-03-06T17:26:56.993Z,95387.13
2023-03-06T17:29:26.339Z,95384.09
2023-03-06T17:31:55.003Z,95385.73
2023-03-06T17:34:24.617Z,95384.58
2023-03-06T17:36:53.132Z,95381.67
2023-03-06T17:39:21.535Z,95374.55
2023-03-06T17:41:50.157Z,95369.27
2023-03-06T17:44:19.882Z,95368.10
2023-03-06T17:46:48.378Z,95366.80
2023-03-06T17:49:19.541Z,95362.27
2023-03-06T17:51:47.841Z,95363.23
2023-03-06T17:54:16.591Z,95361.42
2023-03-06T17:56:45.217Z,95361.13
2023-03-06T17:59:13.708Z,95362.78
2023-03-06T18:01:43.597Z,95365.20
2023-03-06T18:04:12.310Z,95365.65
2023-03-06T18:06:40.677Z,95364.48
2023-03-06T18:09:10.223Z,95359.96
2023-03-06T18:11:39.348Z,95353.88
2023-03-06T18:14:07.983Z,95352.34
2023-03-06T18:16:36.814Z,95356.80
2023-03-06T18:19:05.363Z,95359.89
2023-03-06T18:21:33.789Z,95355.12
2023-03-06T18:24:02.174Z,95353.21
2023-03-06T18:26:30.666Z,95357.10
2023-03-06T18:29:01.562Z,95354.71
2023-03-06T18:31:38.825Z,95351.00
2023-03-06T18:34:13.563Z,95352.14
2023-03-06T18:36:47.185Z,95349.81
2023-03-06T18:39:16.021Z,95351.35
2023-03-06T18:41:44.577Z,95346.58
2023-03-06T18:44:15.482Z,95346.10
2023-03-06T18:46:44.632Z,95343.12
2023-03-06T18:49:14.624Z,95344.75
2023-03-06T18:51:43.102Z,95340.85
2023-03-06T18:54:12.076Z,95340.70
2023-03-06T18:56:44.169Z,95339.46
2023-03-06T18:59:17.508Z,95340.44
2023-03-06T19:01:47.865Z,95337.59
2023-03-06T19:04:16.449Z,95338.75
2023-03-06T19:06:44.929Z,95338.30
2023-03-06T19:09:13.379Z,95334.84
2023-03-06T19:11:42.858Z,95331.02
2023-03-06T19:14:11.421Z,95325.80
2023-03-06T19:16:39.749Z,95326.84
2023-03-06T19:19:08.324Z,95323.30
2023-03-06T19:21:36.832Z,95322.48
2023-03-06T19:24:06.961Z,95325.86
2023-03-06T19:26:35.357Z,95325.55
2023-03-06T19:29:03.677Z,95319.90
2023-03-06T19:31:32.044Z,95314.02
2023-03-06T19:34:01.140Z,95312.61
2023-03-06T19:36:33.757Z,95309.05
2023-03-06T19:39:05.954Z,95311.18
2023-03-06T19:41:34.718Z,95308.13
2023-03-06T19:44:05.940Z,95301.85
2023-03-06T19:46:36.352Z,95303.09
2023-03-06T19:49:12.220Z,95300.98
2023-03-06T19:51:42.642Z,95299.73
2023-03-06T19:54:14.578Z,95300.23
2023-03-06T19:56:43.235Z,95292.27
2023-03-06T19:59:11.596Z,95289.84
2023-03-06T20:01:40.661Z,95291.16
2023-03-06T20:04:11.432Z,95290.64
2023-03-06T20:06:40.026Z,95283.27
2023-03-06T20:09:09.376Z,95278.05
2023-03-06T20:11:38.880Z,95280.44
2023-03-06T20:14:09.142Z,95278.69
2023-03-06T20:16:37.978Z,95269.94
2023-03-06T20:19:06.617Z,95267.50
2023-03-06T20:21:37.730Z,95261.35
2023-03-06T20:24:08.548Z,95261.93
2023-03-06T20:26:38.287Z,95256.31
2023-03-06T20:29:06.773Z,95253.98
2023-03-06T20:31:35.833Z,95248.88
2023-03-06T20:34:05.123Z,95247.63
2023-03-06T20:36:36.873Z,95248.20
2023-03-06T20:39:09.144Z,95244.34
2023-03-06T20:41:37.790Z,95246.05
2023-03-06T20:44:09.316Z,95241.08
2023-03-06T20:46:37.775Z,95233.80
2023-03-06T20:49:07.761Z,95234.80
2023-03-06T20:51:39.335Z,95230.35
2023-03-06T20:54:10.586Z,95233.51
2023-03-06T20:56:41.316Z,95231.61
2023-03-06T20:59:12.291Z,95233.09
2023-03-06T21:01:43.107Z,95236.13
2023-03-06T21:04:13.986Z,95233.23
2023-03-06T21:06:46.779Z,95234.68
2023-03-06T21:09:17.492Z,95235.64
2023-03-06T21:11:46.517Z,95238.86
2023-03-06T21:14:15.939Z,95237.30
2023-03-06T21:16:44.962Z,95238.61
2023-03-06T21:19:13.440Z,95237.12
2023-03-06T21:21:41.931Z,95239.95
2023-03-06T21:24:10.403Z,95234.41
2023-03-06T21:26:38.795Z,95234.48
2023-03-06T21:29:07.287Z,95234.23
2023-03-06T21:33:12.215Z,95237.79
2023-03-06T21:44:56.127Z,95234.48
2023-03-06T21:47:24.512Z,95232.19
2023-03-06T21:49:53.598Z,95229.42
2023-03-06T21:52:21.896Z,95230.98
2023-03-06T21:54:50.252Z,95230.14
2023-03-06T21:57:18.715Z,95228.31
2023-03-06T21:59:47.084Z,95225.72
2023-03-06T22:02:15.496Z,95221.75
2023-03-06T22:04:44.748Z,95218.20
2023-03-06T22:07:13.550Z,95216.48
2023-03-06T22:09:41.969Z,95221.23
2023-03-06T22:12:10.434Z,95218.41
2023-03-06T22:14:38.869Z,95221.34
2023-03-06T22:17:07.276Z,95218.06
2023-03-06T22:19:35.767Z,95212.77
2023-03-06T22:22:04.572Z,95208.50
2023-03-06T22:24:32.922Z,95205.45
2023-03-06T22:27:01.240Z,95204.54
2023-03-06T22:29:49.578Z,95205.65
2023-03-06T22:32:18.123Z,95205.81
2023-03-06T22:34:47.096Z,95207.81
2023-03-06T22:37:16.297Z,95213.88
2023-03-06T22:39:44.794Z,95214.41
2023-03-06T22:42:13.161Z,95215.27
2023-03-06T22:44:42.659Z,95222.61
2023-03-06T22:47:11.037Z,95224.07
2023-03-06T22:49:39.488Z,95232.87
2023-03-06T22:52:07.785Z,95231.32
2023-03-06T22:54:36.267Z,95229.72
2023-03-06T22:57:04.790Z,95232.06
2023-03-06T22:59:33.142Z,95234.19
2023-03-06T23:02:01.526Z,95238.33
2023-03-06T23:04:30.056Z,95233.73
2023-03-06T23:06:58.360Z,95237.15
2023-03-06T23:09:27.004Z,95241.64
2023-03-06T23:12:13.875Z,95240.39
2023-03-06T23:15:01.092Z,95241.00
2023-03-06T23:17:48.138Z,95247.02
2023-03-06T23:20:34.854Z,95247.83
2023-03-06T23:23:22.911Z,95245.48
2023-03-06T23:25:52.084Z,95246.54
2023-03-06T23:28:20.523Z,95246.36
2023-03-06T23:30:48.894Z,95250.14
2023-03-06T23:33:17.276Z,95256.91
2023-03-06T23:35:45.851Z,95261.18
2023-03-06T23:38:14.576Z,95263.27
2023-03-06T23:40:43.013Z,95268.15
2023-03-06T23:43:11.439Z,95274.90
2023-03-06T23:45:39.829Z,95273.79
2023-03-06T23:48:08.143Z,95273.34
2023-03-06T23:50:39.834Z,95273.60
2023-03-06T23:53:08.458Z,95272.89
2023-03-06T23:55:44.372Z,95274.60
2023-03-06T23:58:14.128Z,95273.25
